sensor_id;sensor_type;location;lat;lon;timestamp;pressure;altitude;pressure_sealevel;temperature;humidity
5380;BME280;2713;42.680;23.310;2024-01-06T00:02:02;94915.94;;;9.61;73.67
5380;BME280;2713;42.680;23.310;2024-01-06T00:04:28;94915.78;;;9.78;73.47
5380;BME280;2713;42.680;23.310;2024-01-06T00:06:55;94918.28;;;10.00;72.53
5380;BME280;2713;42.680;23.310;2024-01-06T00:09:22;94900.13;;;10.00;72.32
5380;BME280;2713;42.680;23.310;2024-01-06T00:11:49;94880.16;;;9.72;72.95
5380;BME280;2713;42.680;23.310;2024-01-06T00:14:16;94894.03;;;9.79;73.61
5380;BME280;2713;42.680;23.310;2024-01-06T00:16:44;94900.94;;;9.86;73.50
5380;BME280;2713;42.680;23.310;2024-01-06T00:19:11;94915.34;;;9.89;72.87
5380;BME280;2713;42.680;23.310;2024-01-06T00:21:37;94929.91;;;9.90;72.92
5380;BME280;2713;42.680;23.310;2024-01-06T00:24:04;94924.19;;;9.65;73.86
5380;BME280;2713;42.680;23.310;2024-01-06T00:26:31;94917.75;;;9.76;73.89
5380;BME280;2713;42.680;23.310;2024-01-06T00:28:58;94920.19;;;9.92;73.07
5380;BME280;2713;42.680;23.310;2024-01-06T00:31:25;94913.47;;;9.83;73.05
5380;BME280;2713;42.680;23.310;2024-01-06T00:33:53;94927.78;;;9.79;73.31
5380;BME280;2713;42.680;23.310;2024-01-06T00:36:20;94926.44;;;9.83;73.18
5380;BME280;2713;42.680;23.310;2024-01-06T00:38:47;94921.94;;;9.77;73.49
5380;BME280;2713;42.680;23.310;2024-01-06T00:41:14;94920.63;;;9.81;73.13
5380;BME280;2713;42.680;23.310;2024-01-06T00:43:41;94921.50;;;9.73;72.99
5380;BME280;2713;42.680;23.310;2024-01-06T00:46:08;94918.97;;;9.50;73.79
5380;BME280;2713;42.680;23.310;2024-01-06T00:48:34;94912.75;;;9.37;74.03
5380;BME280;2713;42.680;23.310;2024-01-06T00:51:03;94901.81;;;9.27;74.88
5380;BME280;2713;42.680;23.310;2024-01-06T00:53:30;94909.75;;;9.48;73.97
5380;BME280;2713;42.680;23.310;2024-01-06T00:55:56;94903.69;;;9.55;73.70
5380;BME280;2713;42.680;23.310;2024-01-06T00:58:23;94905.63;;;9.53;73.99
5380;BME280;2713;42.680;23.310;2024-01-06T01:00:50;94915.75;;;9.48;74.06
5380;BME280;2713;42.680;23.310;2024-01-06T01:03:17;94902.69;;;9.56;73.90
5380;BME280;2713;42.680;23.310;2024-01-06T01:05:43;94913.38;;;9.39;74.37
5380;BME280;2713;42.680;23.310;2024-01-06T01:08:12;94913.28;;;9.32;74.60
5380;BME280;2713;42.680;23.310;2024-01-06T01:10:38;94910.88;;;9.45;74.05
5380;BME280;2713;42.680;23.310;2024-01-06T01:13:05;94907.31;;;9.46;74.18
5380;BME280;2713;42.680;23.310;2024-01-06T01:15:32;94904.81;;;9.38;74.23
5380;BME280;2713;42.680;23.310;2024-01-06T01:17:59;94895.78;;;9.49;74.21
5380;BME280;2713;42.680;23.310;2024-01-06T01:20:26;94900.41;;;9.24;74.92
5380;BME280;2713;42.680;23.310;2024-01-06T01:22:53;94900.16;;;9.11;75.63
5380;BME280;2713;42.680;23.310;2024-01-06T01:25:21;94900.06;;;9.42;74.88
5380;BME280;2713;42.680;23.310;2024-01-06T01:27:47;94896.88;;;9.54;74.29
5380;BME280;2713;42.680;23.310;2024-01-06T01:30:14;94887.66;;;9.52;74.17
5380;BME280;2713;42.680;23.310;2024-01-06T01:32:41;94893.19;;;9.49;74.12
5380;BME280;2713;42.680;23.310;2024-01-06T01:35:08;94885.13;;;9.44;74.08
5380;BME280;2713;42.680;23.310;2024-01-06T01:37:35;94888.00;;;9.34;74.30
5380;BME280;2713;42.680;23.310;2024-01-06T01:40:02;94882.03;;;9.48;73.82
5380;BME280;2713;42.680;23.310;2024-01-06T01:42:30;94878.34;;;9.43;74.04
5380;BME280;2713;42.680;23.310;2024-01-06T01:44:57;94877.25;;;9.37;74.38
5380;BME280;2713;42.680;23.310;2024-01-06T01:47:24;94877.34;;;9.44;74.07
5380;BME280;2713;42.680;23.310;2024-01-06T01:49:52;94879.09;;;9.14;74.72
5380;BME280;2713;42.680;23.310;2024-01-06T01:52:19;94864.72;;;9.26;74.96
5380;BME280;2713;42.680;23.310;2024-01-06T01:54:46;94865.63;;;9.33;74.58
5380;BME280;2713;42.680;23.310;2024-01-06T01:57:14;94861.16;;;9.27;74.66
5380;BME280;2713;42.680;23.310;2024-01-06T01:59:43;94865.63;;;9.33;74.33
5380;BME280;2713;42.680;23.310;2024-01-06T02:02:09;94865.06;;;9.23;74.58
5380;BME280;2713;42.680;23.310;2024-01-06T02:04:38;94850.66;;;9.21;74.42
5380;BME280;2713;42.680;23.310;2024-01-06T02:07:05;94854.94;;;9.28;74.35
5380;BME280;2713;42.680;23.310;2024-01-06T02:09:31;94855.59;;;9.30;73.96
5380;BME280;2713;42.680;23.310;2024-01-06T02:11:58;94850.69;;;9.35;73.73
5380;BME280;2713;42.680;23.310;2024-01-06T02:14:25;94847.91;;;9.37;73.75
5380;BME280;2713;42.680;23.310;2024-01-06T02:16:53;94839.31;;;9.36;73.46
5380;BME280;2713;42.680;23.310;2024-01-06T02:19:20;94830.31;;;9.47;73.37
5380;BME280;2713;42.680;23.310;2024-01-06T02:21:51;94842.31;;;9.48;73.27
5380;BME280;2713;42.680;23.310;2024-01-06T02:24:18;94835.56;;;9.39;73.45
5380;BME280;2713;42.680;23.310;2024-01-06T02:26:45;94835.47;;;9.32;73.49
5380;BME280;2713;42.680;23.310;2024-01-06T02:29:12;94823.50;;;9.46;73.13
5380;BME280;2713;42.680;23.310;2024-01-06T02:34:20;94813.19;;;9.23;74.55
5380;BME280;2713;42.680;23.310;2024-01-06T02:36:47;94818.94;;;9.33;73.95
5380;BME280;2713;42.680;23.310;2024-01-06T02:39:15;94816.84;;;9.29;74.08
5380;BME280;2713;42.680;23.310;2024-01-06T02:41:42;94810.78;;;9.36;74.38
5380;BME280;2713;42.680;23.310;2024-01-06T02:44:08;94805.53;;;9.44;73.93
5380;BME280;2713;42.680;23.310;2024-01-06T02:46:35;94811.69;;;9.43;73.40
5380;BME280;2713;42.680;23.310;2024-01-06T02:49:02;94812.31;;;9.45;73.76
5380;BME280;2713;42.680;23.310;2024-01-06T02:51:29;94810.63;;;9.38;73.40
5380;BME280;2713;42.680;23.310;2024-01-06T02:53:55;94805.16;;;9.47;73.24
5380;BME280;2713;42.680;23.310;2024-01-06T02:56:24;94794.75;;;9.18;74.46
5380;BME280;2713;42.680;23.310;2024-01-06T02:58:50;94791.03;;;9.21;74.96
5380;BME280;2713;42.680;23.310;2024-01-06T03:01:17;94788.44;;;9.21;74.64
5380;BME280;2713;42.680;23.310;2024-01-06T03:03:44;94759.88;;;9.06;74.90
5380;BME280;2713;42.680;23.310;2024-01-06T03:06:11;94781.53;;;9.42;73.66
5380;BME280;2713;42.680;23.310;2024-01-06T03:08:38;94783.53;;;9.40;73.33
5380;BME280;2713;42.680;23.310;2024-01-06T03:11:04;94771.09;;;8.84;74.91
5380;BME280;2713;42.680;23.310;2024-01-06T03:13:33;94785.69;;;8.85;75.07
5380;BME280;2713;42.680;23.310;2024-01-06T03:16:03;94782.72;;;8.88;74.66
5380;BME280;2713;42.680;23.310;2024-01-06T03:18:30;94785.38;;;8.42;76.23
5380;BME280;2713;42.680;23.310;2024-01-06T03:20:57;94778.63;;;8.33;74.81
5380;BME280;2713;42.680;23.310;2024-01-06T03:23:24;94778.66;;;8.56;72.95
5380;BME280;2713;42.680;23.310;2024-01-06T03:25:50;94777.88;;;9.07;71.92
5380;BME280;2713;42.680;23.310;2024-01-06T03:28:17;94771.97;;;9.28;71.73
5380;BME280;2713;42.680;23.310;2024-01-06T03:30:45;94779.06;;;9.34;71.76
5380;BME280;2713;42.680;23.310;2024-01-06T03:33:12;94788.25;;;9.37;71.56
5380;BME280;2713;42.680;23.310;2024-01-06T03:35:39;94771.28;;;9.34;71.85
5380;BME280;2713;42.680;23.310;2024-01-06T03:38:06;94770.91;;;9.37;71.64
5380;BME280;2713;42.680;23.310;2024-01-06T03:40:32;94774.84;;;9.33;71.90
5380;BME280;2713;42.680;23.310;2024-01-06T03:42:59;94772.16;;;9.41;70.86
5380;BME280;2713;42.680;23.310;2024-01-06T03:45:26;94767.16;;;9.10;72.12
5380;BME280;2713;42.680;23.310;2024-01-06T03:47:54;94767.16;;;9.10;72.12
5380;BME280;2713;42.680;23.310;2024-01-06T03:50:21;94773.31;;;9.24;72.16
5380;BME280;2713;42.680;23.310;2024-01-06T03:52:48;94777.59;;;9.17;71.98
5380;BME280;2713;42.680;23.310;2024-01-06T03:55:15;94765.78;;;9.14;71.85
5380;BME280;2713;42.680;23.310;2024-01-06T03:57:42;94766.53;;;9.23;72.32
5380;BME280;2713;42.680;23.310;2024-01-06T04:00:09;94769.38;;;9.28;71.55
5380;BME280;2713;42.680;23.310;2024-01-06T04:02:36;94767.59;;;9.14;71.10
5380;BME280;2713;42.680;23.310;2024-01-06T04:05:05;94767.34;;;9.24;70.79
5380;BME280;2713;42.680;23.310;2024-01-06T04:07:32;94776.63;;;9.33;70.72
5380;BME280;2713;42.680;23.310;2024-01-06T04:09:58;94768.13;;;9.24;70.67
5380;BME280;2713;42.680;23.310;2024-01-06T04:12:25;94763.56;;;9.26;70.55
5380;BME280;2713;42.680;23.310;2024-01-06T04:14:52;94765.91;;;9.21;70.79
5380;BME280;2713;42.680;23.310;2024-01-06T04:17:19;94770.88;;;8.93;72.11
5380;BME280;2713;42.680;23.310;2024-01-06T04:19:46;94760.44;;;9.16;71.79
5380;BME280;2713;42.680;23.310;2024-01-06T04:22:14;94769.81;;;9.32;71.19
5380;BME280;2713;42.680;23.310;2024-01-06T04:24:41;94770.28;;;9.35;70.61
5380;BME280;2713;42.680;23.310;2024-01-06T04:27:07;94770.63;;;9.32;70.38
5380;BME280;2713;42.680;23.310;2024-01-06T04:29:35;94767.78;;;9.27;71.16
5380;BME280;2713;42.680;23.310;2024-01-06T04:32:02;94778.28;;;9.11;70.88
5380;BME280;2713;42.680;23.310;2024-01-06T04:34:29;94781.34;;;9.29;70.83
5380;BME280;2713;42.680;23.310;2024-01-06T04:36:55;94787.25;;;9.08;71.48
5380;BME280;2713;42.680;23.310;2024-01-06T04:39:24;94787.16;;;9.16;71.17
5380;BME280;2713;42.680;23.310;2024-01-06T04:41:50;94782.59;;;9.18;70.87
5380;BME280;2713;42.680;23.310;2024-01-06T04:44:20;94777.97;;;9.14;71.55
5380;BME280;2713;42.680;23.310;2024-01-06T04:46:47;94794.91;;;9.02;71.84
5380;BME280;2713;42.680;23.310;2024-01-06T04:49:14;94788.25;;;9.22;71.53
5380;BME280;2713;42.680;23.310;2024-01-06T04:51:40;94783.31;;;9.12;71.93
5380;BME280;2713;42.680;23.310;2024-01-06T04:54:07;94797.19;;;9.20;71.19
5380;BME280;2713;42.680;23.310;2024-01-06T04:56:35;94799.50;;;9.14;71.39
5380;BME280;2713;42.680;23.310;2024-01-06T04:59:02;94784.75;;;9.15;71.26
5380;BME280;2713;42.680;23.310;2024-01-06T05:01:29;94789.31;;;9.13;71.21
5380;BME280;2713;42.680;23.310;2024-01-06T05:03:56;94792.44;;;9.23;70.95
5380;BME280;2713;42.680;23.310;2024-01-06T05:06:23;94770.69;;;8.95;72.33
5380;BME280;2713;42.680;23.310;2024-01-06T05:08:50;94762.81;;;8.88;72.40
5380;BME280;2713;42.680;23.310;2024-01-06T05:11:16;94764.69;;;8.80;71.98
5380;BME280;2713;42.680;23.310;2024-01-06T05:13:44;94768.75;;;8.97;71.11
5380;BME280;2713;42.680;23.310;2024-01-06T05:16:11;94778.41;;;9.03;71.46
5380;BME280;2713;42.680;23.310;2024-01-06T05:18:38;94762.00;;;8.88;71.64
5380;BME280;2713;42.680;23.310;2024-01-06T05:21:05;94769.75;;;8.73;72.58
5380;BME280;2713;42.680;23.310;2024-01-06T05:23:32;94783.38;;;8.90;72.08
5380;BME280;2713;42.680;23.310;2024-01-06T05:25:58;94743.13;;;8.79;72.45
5380;BME280;2713;42.680;23.310;2024-01-06T05:28:25;94752.44;;;8.88;72.23
5380;BME280;2713;42.680;23.310;2024-01-06T05:30:53;94750.09;;;8.79;71.00
5380;BME280;2713;42.680;23.310;2024-01-06T05:33:20;94740.00;;;8.24;72.07
5380;BME280;2713;42.680;23.310;2024-01-06T05:35:47;94755.94;;;8.58;70.66
5380;BME280;2713;42.680;23.310;2024-01-06T05:38:13;94746.19;;;8.45;71.04
5380;BME280;2713;42.680;23.310;2024-01-06T05:40:40;94746.03;;;8.16;70.02
5380;BME280;2713;42.680;23.310;2024-01-06T05:43:08;94733.34;;;7.98;70.39
5380;BME280;2713;42.680;23.310;2024-01-06T05:45:35;94764.78;;;8.49;69.58
5380;BME280;2713;42.680;23.310;2024-01-06T05:48:05;94761.91;;;8.81;68.91
5380;BME280;2713;42.680;23.310;2024-01-06T05:50:34;94751.94;;;8.55;69.06
5380;BME280;2713;42.680;23.310;2024-01-06T05:53:01;94745.03;;;8.48;69.67
5380;BME280;2713;42.680;23.310;2024-01-06T05:55:28;94748.53;;;8.55;69.32
5380;BME280;2713;42.680;23.310;2024-01-06T05:57:55;94766.41;;;8.64;68.84
5380;BME280;2713;42.680;23.310;2024-01-06T06:00:22;94743.84;;;8.88;68.98
5380;BME280;2713;42.680;23.310;2024-01-06T06:02:49;94741.00;;;8.83;69.43
5380;BME280;2713;42.680;23.310;2024-01-06T06:05:17;94756.09;;;8.94;69.28
5380;BME280;2713;42.680;23.310;2024-01-06T06:07:43;94749.69;;;8.90;68.55
5380;BME280;2713;42.680;23.310;2024-01-06T06:10:11;94740.84;;;8.99;68.51
5380;BME280;2713;42.680;23.310;2024-01-06T06:12:38;94743.06;;;9.02;69.04
5380;BME280;2713;42.680;23.310;2024-01-06T06:15:06;94734.22;;;8.96;69.03
5380;BME280;2713;42.680;23.310;2024-01-06T06:17:33;94755.31;;;8.93;69.27
5380;BME280;2713;42.680;23.310;2024-01-06T06:20:00;94740.91;;;8.91;69.05
5380;BME280;2713;42.680;23.310;2024-01-06T06:22:28;94742.38;;;8.93;69.12
5380;BME280;2713;42.680;23.310;2024-01-06T06:24:56;94742.94;;;8.81;69.71
5380;BME280;2713;42.680;23.310;2024-01-06T06:27:23;94748.41;;;8.86;69.77
5380;BME280;2713;42.680;23.310;2024-01-06T06:29:50;94762.09;;;8.94;69.00
5380;BME280;2713;42.680;23.310;2024-01-06T06:32:16;94754.97;;;8.96;69.28
5380;BME280;2713;42.680;23.310;2024-01-06T06:34:43;94756.81;;;8.88;69.78
5380;BME280;2713;42.680;23.310;2024-01-06T06:37:10;94748.97;;;8.96;69.53
5380;BME280;2713;42.680;23.310;2024-01-06T06:39:38;94748.31;;;8.94;69.89
5380;BME280;2713;42.680;23.310;2024-01-06T06:42:05;94760.41;;;9.01;69.66
5380;BME280;2713;42.680;23.310;2024-01-06T06:44:32;94759.38;;;9.10;68.48
5380;BME280;2713;42.680;23.310;2024-01-06T06:46:59;94747.16;;;8.82;69.63
5380;BME280;2713;42.680;23.310;2024-01-06T06:49:26;94762.34;;;8.85;69.04
5380;BME280;2713;42.680;23.310;2024-01-06T06:51:52;94765.34;;;8.96;69.13
5380;BME280;2713;42.680;23.310;2024-01-06T06:54:21;94748.16;;;8.95;68.60
5380;BME280;2713;42.680;23.310;2024-01-06T06:56:49;94756.09;;;8.79;69.33
5380;BME280;2713;42.680;23.310;2024-01-06T06:59:16;94766.16;;;8.97;67.92
5380;BME280;2713;42.680;23.310;2024-01-06T07:01:43;94736.84;;;8.74;68.76
5380;BME280;2713;42.680;23.310;2024-01-06T07:04:09;94740.22;;;8.97;68.35
5380;BME280;2713;42.680;23.310;2024-01-06T07:06:36;94760.75;;;8.98;67.55
5380;BME280;2713;42.680;23.310;2024-01-06T07:09:03;94744.34;;;9.06;67.76
5380;BME280;2713;42.680;23.310;2024-01-06T07:11:30;94748.63;;;8.99;67.86
5380;BME280;2713;42.680;23.310;2024-01-06T07:13:58;94756.81;;;8.88;68.11
5380;BME280;2713;42.680;23.310;2024-01-06T07:16:25;94753.81;;;8.99;68.54
5380;BME280;2713;42.680;23.310;2024-01-06T07:18:52;94748.72;;;9.05;68.29
5380;BME280;2713;42.680;23.310;2024-01-06T07:21:18;94750.91;;;8.94;68.33
5380;BME280;2713;42.680;23.310;2024-01-06T07:23:45;94749.00;;;9.10;67.33
5380;BME280;2713;42.680;23.310;2024-01-06T07:26:12;94749.59;;;9.12;67.42
5380;BME280;2713;42.680;23.310;2024-01-06T07:28:39;94745.41;;;9.26;67.33
5380;BME280;2713;42.680;23.310;2024-01-06T07:31:07;94747.09;;;9.19;67.46
5380;BME280;2713;42.680;23.310;2024-01-06T07:33:33;94753.47;;;9.31;67.14
5380;BME280;2713;42.680;23.310;2024-01-06T07:36:00;94721.53;;;9.31;67.13
5380;BME280;2713;42.680;23.310;2024-01-06T07:38:27;94729.94;;;9.33;67.29
5380;BME280;2713;42.680;23.310;2024-01-06T07:40:56;94737.00;;;9.39;66.60
5380;BME280;2713;42.680;23.310;2024-01-06T07:43:23;94728.16;;;9.18;67.11
5380;BME280;2713;42.680;23.310;2024-01-06T07:45:49;94744.97;;;9.37;66.68
5380;BME280;2713;42.680;23.310;2024-01-06T07:48:18;94732.44;;;9.26;67.45
5380;BME280;2713;42.680;23.310;2024-01-06T07:50:44;94734.16;;;9.48;66.86
5380;BME280;2713;42.680;23.310;2024-01-06T07:53:11;94743.81;;;9.54;66.25
5380;BME280;2713;42.680;23.310;2024-01-06T07:55:39;94736.38;;;9.51;66.33
5380;BME280;2713;42.680;23.310;2024-01-06T07:58:06;94745.31;;;9.63;66.45
5380;BME280;2713;42.680;23.310;2024-01-06T08:00:32;94740.81;;;9.72;65.64
5380;BME280;2713;42.680;23.310;2024-01-06T08:02:59;94742.09;;;9.32;66.92
5380;BME280;2713;42.680;23.310;2024-01-06T08:05:27;94748.06;;;9.77;65.61
5380;BME280;2713;42.680;23.310;2024-01-06T08:07:54;94736.97;;;9.68;65.65
5380;BME280;2713;42.680;23.310;2024-01-06T08:10:21;94754.59;;;9.73;64.93
5380;BME280;2713;42.680;23.310;2024-01-06T08:12:48;94750.78;;;9.39;65.68
5380;BME280;2713;42.680;23.310;2024-01-06T08:15:15;94727.88;;;9.57;65.79
5380;BME280;2713;42.680;23.310;2024-01-06T08:17:41;94744.84;;;9.75;65.54
5380;BME280;2713;42.680;23.310;2024-01-06T08:20:09;94726.41;;;9.69;65.85
5380;BME280;2713;42.680;23.310;2024-01-06T08:22:37;94709.63;;;9.65;66.11
5380;BME280;2713;42.680;23.310;2024-01-06T08:25:04;94727.63;;;9.88;65.83
5380;BME280;2713;42.680;23.310;2024-01-06T08:27:33;94737.09;;;9.96;65.59
5380;BME280;2713;42.680;23.310;2024-01-06T08:29:59;94739.28;;;9.78;66.29
5380;BME280;2713;42.680;23.310;2024-01-06T08:32:26;94741.97;;;9.84;65.90
5380;BME280;2713;42.680;23.310;2024-01-06T08:34:53;94721.72;;;9.80;66.31
5380;BME280;2713;42.680;23.310;2024-01-06T08:37:20;94725.72;;;9.97;65.98
5380;BME280;2713;42.680;23.310;2024-01-06T08:39:48;94739.13;;;10.15;65.32
5380;BME280;2713;42.680;23.310;2024-01-06T08:42:14;94738.34;;;10.00;64.85
5380;BME280;2713;42.680;23.310;2024-01-06T08:44:41;94729.72;;;10.14;65.19
5380;BME280;2713;42.680;23.310;2024-01-06T08:47:09;94738.22;;;10.23;64.85
5380;BME280;2713;42.680;23.310;2024-01-06T08:49:36;94735.72;;;10.14;65.65
5380;BME280;2713;42.680;23.310;2024-01-06T08:52:03;94724.59;;;10.21;65.62
5380;BME280;2713;42.680;23.310;2024-01-06T08:54:30;94730.31;;;10.31;65.61
5380;BME280;2713;42.680;23.310;2024-01-06T08:56:59;94718.19;;;10.02;65.84
5380;BME280;2713;42.680;23.310;2024-01-06T08:59:26;94724.34;;;10.15;65.62
5380;BME280;2713;42.680;23.310;2024-01-06T09:01:52;94733.38;;;10.20;65.66
5380;BME280;2713;42.680;23.310;2024-01-06T09:04:19;94705.72;;;10.12;66.01
5380;BME280;2713;42.680;23.310;2024-01-06T09:06:46;94724.59;;;10.21;65.62
5380;BME280;2713;42.680;23.310;2024-01-06T09:09:16;94700.44;;;10.05;65.14
5380;BME280;2713;42.680;23.310;2024-01-06T09:11:43;94700.81;;;10.17;65.91
5380;BME280;2713;42.680;23.310;2024-01-06T09:14:13;94719.06;;;10.09;65.49
5380;BME280;2713;42.680;23.310;2024-01-06T09:16:39;94674.03;;;9.81;66.58
5380;BME280;2713;42.680;23.310;2024-01-06T09:19:06;94693.91;;;10.09;66.04
5380;BME280;2713;42.680;23.310;2024-01-06T09:21:34;94699.44;;;10.21;65.32
5380;BME280;2713;42.680;23.310;2024-01-06T09:24:01;94686.81;;;10.18;65.29
5380;BME280;2713;42.680;23.310;2024-01-06T09:26:31;94689.78;;;10.15;65.30
5380;BME280;2713;42.680;23.310;2024-01-06T09:28:59;94648.53;;;10.05;66.24
5380;BME280;2713;42.680;23.310;2024-01-06T09:31:27;94694.00;;;10.16;66.07
5380;BME280;2713;42.680;23.310;2024-01-06T09:33:54;94667.88;;;10.24;65.54
5380;BME280;2713;42.680;23.310;2024-01-06T09:36:21;94667.97;;;10.31;65.43
5380;BME280;2713;42.680;23.310;2024-01-06T09:38:48;94650.75;;;10.30;65.38
5380;BME280;2713;42.680;23.310;2024-01-06T09:41:15;94649.44;;;10.40;65.36
5380;BME280;2713;42.680;23.310;2024-01-06T09:43:41;94657.72;;;10.50;64.58
5380;BME280;2713;42.680;23.310;2024-01-06T09:46:14;94660.94;;;10.52;64.46
5380;BME280;2713;42.680;23.310;2024-01-06T09:48:44;94629.66;;;10.39;64.90
5380;BME280;2713;42.680;23.310;2024-01-06T09:51:12;94655.03;;;10.37;65.20
5380;BME280;2713;42.680;23.310;2024-01-06T09:53:43;94643.63;;;10.38;64.99
5380;BME280;2713;42.680;23.310;2024-01-06T09:56:14;94630.41;;;10.33;65.32
5380;BME280;2713;42.680;23.310;2024-01-06T09:58:41;94625.72;;;10.50;65.07
5380;BME280;2713;42.680;23.310;2024-01-06T10:01:10;94637.22;;;10.34;65.60
5380;BME280;2713;42.680;23.310;2024-01-06T10:03:37;94640.03;;;10.39;65.57
5380;BME280;2713;42.680;23.310;2024-01-06T10:06:06;94620.13;;;10.46;65.60
5380;BME280;2713;42.680;23.310;2024-01-06T10:08:35;94619.97;;;10.54;65.56
5380;BME280;2713;42.680;23.310;2024-01-06T10:11:02;94618.06;;;10.14;65.93
5380;BME280;2713;42.680;23.310;2024-01-06T10:13:29;94603.94;;;9.81;67.50
5380;BME280;2713;42.680;23.310;2024-01-06T10:15:56;94609.16;;;10.23;66.52
5380;BME280;2713;42.680;23.310;2024-01-06T10:18:24;94603.84;;;10.38;65.46
5380;BME280;2713;42.680;23.310;2024-01-06T10:20:51;94594.41;;;10.09;66.54
5380;BME280;2713;42.680;23.310;2024-01-06T10:23:22;94603.81;;;10.31;66.50
5380;BME280;2713;42.680;23.310;2024-01-06T10:25:51;94584.13;;;10.43;65.34
5380;BME280;2713;42.680;23.310;2024-01-06T10:28:18;94595.03;;;10.60;64.88
5380;BME280;2713;42.680;23.310;2024-01-06T10:30:47;94585.19;;;10.55;64.54
5380;BME280;2713;42.680;23.310;2024-01-06T10:33:14;94551.72;;;10.39;65.04
5380;BME280;2713;42.680;23.310;2024-01-06T10:35:40;94578.28;;;10.69;64.81
5380;BME280;2713;42.680;23.310;2024-01-06T10:38:07;94575.47;;;10.64;64.68
5380;BME280;2713;42.680;23.310;2024-01-06T10:40:35;94565.25;;;10.62;64.75
5380;BME280;2713;42.680;23.310;2024-01-06T10:43:03;94565.47;;;10.67;65.19
5380;BME280;2713;42.680;23.310;2024-01-06T10:45:30;94579.91;;;10.77;64.93
5380;BME280;2713;42.680;23.310;2024-01-06T10:47:57;94552.31;;;10.76;64.53
5380;BME280;2713;42.680;23.310;2024-01-06T10:50:27;94556.94;;;10.80;63.96
5380;BME280;2713;42.680;23.310;2024-01-06T10:52:55;94550.91;;;10.73;64.77
5380;BME280;2713;42.680;23.310;2024-01-06T10:55:23;94539.13;;;10.77;64.84
5380;BME280;2713;42.680;23.310;2024-01-06T10:57:53;94546.59;;;10.93;64.59
5380;BME280;2713;42.680;23.310;2024-01-06T11:00:20;94535.59;;;10.91;64.40
5380;BME280;2713;42.680;23.310;2024-01-06T11:02:48;94538.19;;;10.50;65.14
5380;BME280;2713;42.680;23.310;2024-01-06T11:05:18;94531.75;;;10.81;64.16
5380;BME280;2713;42.680;23.310;2024-01-06T11:07:46;94526.25;;;10.62;64.20
5380;BME280;2713;42.680;23.310;2024-01-06T11:10:18;94512.72;;;10.74;63.53
5380;BME280;2713;42.680;23.310;2024-01-06T11:12:45;94524.00;;;10.94;62.85
5380;BME280;2713;42.680;23.310;2024-01-06T11:15:45;94522.75;;;10.83;62.78
5380;BME280;2713;42.680;23.310;2024-01-06T11:18:31;94517.19;;;10.93;62.49
5380;BME280;2713;42.680;23.310;2024-01-06T11:21:18;94502.78;;;10.90;62.25
5380;BME280;2713;42.680;23.310;2024-01-06T11:26:51;94494.81;;;10.92;61.96
5380;BME280;2713;42.680;23.310;2024-01-06T11:29:19;94491.13;;;10.73;62.53
5380;BME280;2713;42.680;23.310;2024-01-06T11:32:19;94504.06;;;11.14;61.91
5380;BME280;2713;42.680;23.310;2024-01-06T11:34:50;94498.88;;;11.20;61.10
5380;BME280;2713;42.680;23.310;2024-01-06T11:37:26;94468.25;;;11.16;60.76
5380;BME280;2713;42.680;23.310;2024-01-06T11:40:02;94488.72;;;11.45;60.07
5380;BME280;2713;42.680;23.310;2024-01-06T11:42:32;94465.09;;;11.47;59.78
5380;BME280;2713;42.680;23.310;2024-01-06T11:45:01;94458.88;;;11.35;60.29
5380;BME280;2713;42.680;23.310;2024-01-06T11:47:29;94428.66;;;11.34;60.43
5380;BME280;2713;42.680;23.310;2024-01-06T11:49:58;94459.50;;;11.56;59.49
5380;BME280;2713;42.680;23.310;2024-01-06T11:52:25;94450.66;;;11.44;59.54
5380;BME280;2713;42.680;23.310;2024-01-06T11:54:52;94419.25;;;11.33;60.13
5380;BME280;2713;42.680;23.310;2024-01-06T11:57:20;94435.44;;;11.28;59.53
5380;BME280;2713;42.680;23.310;2024-01-06T11:59:47;94422.03;;;11.18;60.56
5380;BME280;2713;42.680;23.310;2024-01-06T12:02:17;94440.47;;;11.56;60.03
5380;BME280;2713;42.680;23.310;2024-01-06T12:04:49;94430.88;;;11.50;59.69
5380;BME280;2713;42.680;23.310;2024-01-06T12:07:17;94408.63;;;11.47;60.19
5380;BME280;2713;42.680;23.310;2024-01-06T12:09:45;94421.25;;;11.31;60.57
5380;BME280;2713;42.680;23.310;2024-01-06T12:12:15;94399.97;;;10.75;62.38
5380;BME280;2713;42.680;23.310;2024-01-06T12:14:42;94379.97;;;10.75;63.28
5380;BME280;2713;42.680;23.310;2024-01-06T12:17:09;94387.81;;;11.08;62.65
5380;BME280;2713;42.680;23.310;2024-01-06T12:19:36;94382.81;;;11.13;62.58
5380;BME280;2713;42.680;23.310;2024-01-06T12:22:04;94394.22;;;11.38;62.18
5380;BME280;2713;42.680;23.310;2024-01-06T12:24:32;94409.25;;;11.62;61.53
5380;BME280;2713;42.680;23.310;2024-01-06T12:26:59;94402.25;;;11.76;60.55
5380;BME280;2713;42.680;23.310;2024-01-06T12:29:26;94409.22;;;11.69;61.17
5380;BME280;2713;42.680;23.310;2024-01-06T12:31:55;94419.66;;;11.69;60.85
5380;BME280;2713;42.680;23.310;2024-01-06T12:34:22;94411.66;;;11.64;61.03
5380;BME280;2713;42.680;23.310;2024-01-06T12:36:52;94419.06;;;11.80;61.15
5380;BME280;2713;42.680;23.310;2024-01-06T12:39:21;94409.44;;;11.87;60.96
5380;BME280;2713;42.680;23.310;2024-01-06T12:41:50;94398.25;;;11.74;60.63
5380;BME280;2713;42.680;23.310;2024-01-06T12:44:17;94402.84;;;11.32;61.70
5380;BME280;2713;42.680;23.310;2024-01-06T12:46:43;94382.63;;;11.08;63.20
5380;BME280;2713;42.680;23.310;2024-01-06T12:49:10;94356.00;;;11.26;63.32
5380;BME280;2713;42.680;23.310;2024-01-06T12:51:37;94381.44;;;11.50;62.29
5380;BME280;2713;42.680;23.310;2024-01-06T12:54:04;94366.59;;;11.63;62.31
5380;BME280;2713;42.680;23.310;2024-01-06T12:56:32;94371.81;;;11.63;62.17
5380;BME280;2713;42.680;23.310;2024-01-06T12:58:59;94376.03;;;11.78;61.76
5380;BME280;2713;42.680;23.310;2024-01-06T13:01:26;94373.22;;;11.33;62.54
5380;BME280;2713;42.680;23.310;2024-01-06T13:03:53;94375.03;;;11.26;63.20
5380;BME280;2713;42.680;23.310;2024-01-06T13:06:20;94380.41;;;11.44;63.21
5380;BME280;2713;42.680;23.310;2024-01-06T13:08:47;94385.41;;;11.79;61.65
5380;BME280;2713;42.680;23.310;2024-01-06T13:11:14;94375.13;;;12.10;61.37
5380;BME280;2713;42.680;23.310;2024-01-06T13:13:42;94371.50;;;12.17;60.67
5380;BME280;2713;42.680;23.310;2024-01-06T13:16:09;94375.28;;;12.28;60.44
5380;BME280;2713;42.680;23.310;2024-01-06T13:18:36;94378.41;;;12.43;60.69
5380;BME280;2713;42.680;23.310;2024-01-06T13:21:03;94360.91;;;12.57;59.69
5380;BME280;2713;42.680;23.310;2024-01-06T13:23:31;94355.63;;;12.32;60.03
5380;BME280;2713;42.680;23.310;2024-01-06T13:25:58;94357.50;;;12.12;60.97